• Join FlightAware (Why Join?)
  • Login
  • US Flag 
07:40AM EDT


 

Airport Tracker/Info


-or-


 

Live Flight TrackerFlight Track Log ✈ DAL6201 ✈ 27-Apr-2013 ✈ KLGA - KPIT

Flight Track Log - Related Links

Times and Time Zones

All times are in EDT time to prevent confusion due to time zone crossing. See the DAL6201 flight status page for this flight to view local times or setup timezone preferences in your user account.

Time Position Orientation Groundspeed Altitude Reporting Facility
EDT Latitude Longitude Course Direction KTS MPH feet Rate Location/Type
10:01AM 40.8167 -73.8667 276° West 151 174 2,500  Level New York TRACON
10:02AM 40.8833 -73.8833 349° North 223 257 4,700 1,800 Climbing New York TRACON
10:03AM 40.9167 -73.9333 311° West 256 295 6,100 1,320 Climbing New York TRACON
10:04AM 40.9333 -74.0333 282° West 258 297 7,400 2,160 Climbing New York TRACON
10:05AM 40.9333 -74.1333 270° West 274 315 10,500 2,340 Climbing New York TRACON
10:07AM 40.8476 -74.6023 276° West  Level FlightAware Approximate
10:07AM 40.9217 -74.3631 266° West 321 369 14,900  Level New York Center
10:08AM 40.9219 -74.4894 270° West 337 388 17,000 1,080 Climbing New York Center
10:09AM 40.9217 -74.6211 270° West 357 411 17,100  Climbing New York Center
10:10AM 40.9214 -74.7611 270° West 373 429 17,000 -60 Descending New York Center
10:11AM 40.9197 -74.8683 269° West 378 435 17,000 360 Level New York Center
10:12AM 40.8994 -75.0289 261° West 373 429 17,800 1,200 Climbing New York Center
10:13AM 40.8764 -75.1483 256° West 378 435 19,500 1,740 Climbing New York Center
10:14AM 40.8503 -75.2864 256° West 378 435 21,300 1,740 Climbing New York Center
10:15AM 40.8242 -75.4247 256° West 388 447 23,000 1,680 Climbing New York Center
10:16AM 40.7975 -75.5653 256° West 393 452 24,700 1,560 Climbing New York Center
10:17AM 40.7689 -75.7058 255° West 393 452 26,200 1,260 Climbing New York Center
10:18AM 40.7397 -75.8517 255° West 398 458 27,300 840 Climbing New York Center
10:19AM 40.7125 -75.9975 256° West 408 470 28,000 300 Climbing New York Center
10:20AM 40.6828 -76.1514 256° West 427 491 28,000  Level New York Center
10:21AM 40.6739 -76.3011 266° West 432 497 28,000  Level New York Center
10:22AM 40.6958 -76.4506 281° West 414 476 28,000  Level New York Center
10:23AM 40.7200 -76.5978 282° West 414 476 28,000  Level New York Center
10:24AM 40.7417 -76.7475 281° West 414 476 28,000  Level New York Center
10:25AM 40.7611 -76.9000 280° West 414 476 28,000  Level New York Center
10:26AM 40.7822 -77.0528 280° West 419 482 28,000  Level New York Center
10:27AM 40.8053 -77.2031 282° West 419 482 28,000  Level New York Center
10:28AM 40.8317 -77.3672 282° West 419 482 28,000 -900 Level New York Center
10:30AM 40.8650 -77.6286 280° West 408 470 25,500 -1,500 Descending Cleveland Center
10:31AM 40.8853 -77.7789 280° West 408 470 23,800 -1,560 Descending Cleveland Center
10:32AM 40.9056 -77.9292 280° West 413 475 22,400 -900 Descending Cleveland Center
10:33AM 40.9028 -78.0803 269° West 413 475 22,000 -240 Descending Cleveland Center
10:34AM 40.8997 -78.2289 268° West 408 470 22,000  Level Cleveland Center
10:35AM 40.9008 -78.3881 271° West 402 463 22,000  Level Cleveland Center
10:36AM 40.8950 -78.5311 267° West 402 463 22,000  Level Cleveland Center
10:37AM 40.8914 -78.6742 268° West 402 463 22,000  Level Cleveland Center
10:38AM 40.8894 -78.8197 269° West 402 463 22,000 -900 Level Cleveland Center
10:39AM 40.8833 -78.9600 267° West 397 457 20,200 -1,800 Descending Cleveland Center
10:40AM 40.8808 -79.0947 269° West 385 443 18,400 -1,620 Descending Cleveland Center
10:41AM 40.8783 -79.2156 268° West 385 443 17,000 -1,620 Descending Cleveland Center
10:42AM 40.8736 -79.3475 267° West 374 430 15,200 -1,800 Descending Cleveland Center